createdAt,value
2022-10-23T00:10:21.180Z,98150
2022-10-23T00:22:21.204Z,98140
2022-10-23T00:34:21.236Z,98140
2022-10-23T00:46:21.431Z,98100
2022-10-23T00:58:21.299Z,98100
2022-10-23T01:10:21.291Z,98110
2022-10-23T01:22:21.302Z,98110
2022-10-23T01:34:21.270Z,98110
2022-10-23T01:46:21.299Z,98090
2022-10-23T01:58:21.284Z,98080
2022-10-23T02:10:21.241Z,98070
2022-10-23T02:22:21.188Z,98050
2022-10-23T02:34:21.298Z,98020
2022-10-23T02:46:21.277Z,98020
2022-10-23T02:58:21.182Z,98000
2022-10-23T03:10:21.287Z,98000
2022-10-23T03:22:21.177Z,97980
2022-10-23T03:34:21.272Z,97980
2022-10-23T03:46:21.177Z,97980
2022-10-23T03:58:21.298Z,97990
2022-10-23T04:10:21.495Z,97980
2022-10-23T04:22:24.693Z,97970
2022-10-23T04:34:21.248Z,97960
2022-10-23T04:46:21.292Z,97970
2022-10-23T04:58:21.178Z,97960
2022-10-23T05:10:21.174Z,97940
2022-10-23T05:22:21.179Z,97920
2022-10-23T05:34:21.304Z,97900
2022-10-23T05:46:21.187Z,97920
2022-10-23T05:58:21.243Z,97900
2022-10-23T06:10:21.184Z,97900
2022-10-23T06:22:21.299Z,97900
2022-10-23T06:34:21.282Z,97890
2022-10-23T06:46:21.255Z,97890
2022-10-23T06:58:21.301Z,97870
2022-10-23T07:10:21.177Z,97880
2022-10-23T07:22:21.172Z,97870
2022-10-23T07:34:21.259Z,97880
2022-10-23T07:46:21.305Z,97870
2022-10-23T07:58:21.177Z,97890
2022-10-23T08:10:21.290Z,97900
2022-10-23T08:22:21.362Z,97890
2022-10-23T08:34:21.306Z,97890
2022-10-23T08:46:21.269Z,97860
2022-10-23T08:58:21.272Z,97850
2022-10-23T09:10:21.253Z,97860
2022-10-23T09:22:21.697Z,97850
2022-10-23T09:34:21.312Z,97840
2022-10-23T09:46:21.190Z,97860
2022-10-23T09:58:21.183Z,97820
2022-10-23T10:10:21.294Z,97830
2022-10-23T10:22:21.277Z,97820
2022-10-23T10:34:21.232Z,97810
2022-10-23T10:46:21.182Z,97780
2022-10-23T10:58:21.305Z,97770
2022-10-23T11:10:21.176Z,97770
2022-10-23T11:22:21.282Z,97740
2022-10-23T11:34:21.300Z,97710
2022-10-23T11:46:21.265Z,97730
2022-10-23T11:58:21.184Z,97710
2022-10-23T12:10:21.267Z,97710
2022-10-23T12:22:21.360Z,97700
2022-10-23T12:34:21.306Z,97650
2022-10-23T12:46:21.182Z,97630
2022-10-23T12:58:21.236Z,97630
2022-10-23T13:10:21.178Z,97640
2022-10-23T13:22:21.179Z,97620
2022-10-23T13:34:21.261Z,97590
2022-10-23T13:46:21.285Z,97580
2022-10-23T13:58:21.187Z,97570
2022-10-23T14:10:23.538Z,97550
2022-10-23T14:22:21.254Z,97540
2022-10-23T14:34:21.305Z,97530
2022-10-23T14:46:21.301Z,97510
2022-10-23T14:58:21.177Z,97500
2022-10-23T15:10:21.180Z,97500
2022-10-23T15:22:21.293Z,97480
2022-10-23T15:34:21.290Z,97480
2022-10-23T15:46:21.301Z,97440
2022-10-23T15:58:21.268Z,97420
2022-10-23T16:10:21.296Z,97430
2022-10-23T16:22:21.276Z,97420
2022-10-23T16:34:21.258Z,97440
2022-10-23T16:46:21.302Z,97450
2022-10-23T16:58:21.293Z,97470
2022-10-23T17:10:21.280Z,97520
2022-10-23T17:22:21.184Z,97550
2022-10-23T17:34:21.313Z,97600
2022-10-23T17:46:21.188Z,97570
2022-10-23T17:58:21.285Z,97520
2022-10-23T18:10:21.187Z,97480
2022-10-23T18:22:21.193Z,97540
2022-10-23T18:34:21.265Z,97530
2022-10-23T18:46:21.267Z,97550
2022-10-23T18:58:21.266Z,97530
2022-10-23T19:10:21.299Z,97520
2022-10-23T19:22:21.217Z,97510
2022-10-23T19:34:21.245Z,97490
2022-10-23T19:46:21.178Z,97490
2022-10-23T19:58:21.295Z,97530
2022-10-23T20:10:21.237Z,97540
2022-10-23T20:22:21.244Z,97550
2022-10-23T20:34:21.212Z,97540
2022-10-23T20:46:21.298Z,97540
2022-10-23T20:58:21.271Z,97550
2022-10-23T21:10:21.250Z,97580
2022-10-23T21:22:21.276Z,97580
2022-10-23T21:34:21.398Z,97590
2022-10-23T21:46:21.267Z,97600
2022-10-23T21:58:21.186Z,97600
2022-10-23T22:10:21.272Z,97610
2022-10-23T22:22:21.186Z,97620
2022-10-23T22:34:27.285Z,97600
2022-10-23T22:46:21.179Z,97590
2022-10-23T22:58:21.478Z,97580
2022-10-23T23:10:21.294Z,97580
2022-10-23T23:22:21.308Z,97570
2022-10-23T23:34:21.182Z,97580
2022-10-23T23:46:21.277Z,97580
2022-10-23T23:58:21.297Z,97570
